sensor_id;sensor_type;location;lat;lon;timestamp;temperature;humidity
18906;DHT22;9585;51.018;4.282;2023-05-14T00:01:17;10.80;99.90
18906;DHT22;9585;51.018;4.282;2023-05-14T00:04:01;10.80;99.90
18906;DHT22;9585;51.018;4.282;2023-05-14T00:06:32;10.90;99.90
18906;DHT22;9585;51.018;4.282;2023-05-14T00:09:05;10.90;99.90
18906;DHT22;9585;51.018;4.282;2023-05-14T00:11:32;10.80;99.90
18906;DHT22;9585;51.018;4.282;2023-05-14T00:14:00;10.80;99.90
18906;DHT22;9585;51.018;4.282;2023-05-14T00:16:27;10.70;99.90
18906;DHT22;9585;51.018;4.282;2023-05-14T00:18:55;10.80;99.90
18906;DHT22;9585;51.018;4.282;2023-05-14T00:21:24;10.80;99.90
18906;DHT22;9585;51.018;4.282;2023-05-14T00:23:51;10.80;99.90
18906;DHT22;9585;51.018;4.282;2023-05-14T00:26:19;10.80;99.90
18906;DHT22;9585;51.018;4.282;2023-05-14T00:28:47;10.80;99.90
18906;DHT22;9585;51.018;4.282;2023-05-14T00:31:14;10.80;99.90
18906;DHT22;9585;51.018;4.282;2023-05-14T00:33:42;10.90;99.90
18906;DHT22;9585;51.018;4.282;2023-05-14T00:36:09;10.80;99.90
18906;DHT22;9585;51.018;4.282;2023-05-14T00:38:38;10.90;99.90
18906;DHT22;9585;51.018;4.282;2023-05-14T00:41:06;10.90;99.90
18906;DHT22;9585;51.018;4.282;2023-05-14T00:43:33;10.90;99.90
18906;DHT22;9585;51.018;4.282;2023-05-14T00:46:01;10.90;99.90
18906;DHT22;9585;51.018;4.282;2023-05-14T00:48:28;10.90;99.90
18906;DHT22;9585;51.018;4.282;2023-05-14T00:50:56;10.90;99.90
18906;DHT22;9585;51.018;4.282;2023-05-14T00:53:24;10.90;99.90
18906;DHT22;9585;51.018;4.282;2023-05-14T00:55:53;10.90;99.90
18906;DHT22;9585;51.018;4.282;2023-05-14T00:58:21;10.90;99.90
18906;DHT22;9585;51.018;4.282;2023-05-14T01:00:48;10.90;99.90
18906;DHT22;9585;51.018;4.282;2023-05-14T01:03:16;10.90;99.90
18906;DHT22;9585;51.018;4.282;2023-05-14T01:05:53;10.90;99.90
18906;DHT22;9585;51.018;4.282;2023-05-14T01:08:30;10.90;99.90
18906;DHT22;9585;51.018;4.282;2023-05-14T01:11:05;11.00;99.90
18906;DHT22;9585;51.018;4.282;2023-05-14T01:13:39;11.00;99.90
18906;DHT22;9585;51.018;4.282;2023-05-14T01:16:12;11.00;99.90
18906;DHT22;9585;51.018;4.282;2023-05-14T01:18:42;10.90;99.90
18906;DHT22;9585;51.018;4.282;2023-05-14T01:21:26;11.00;99.90
18906;DHT22;9585;51.018;4.282;2023-05-14T01:24:00;10.90;99.90
18906;DHT22;9585;51.018;4.282;2023-05-14T01:26:27;11.00;99.90
18906;DHT22;9585;51.018;4.282;2023-05-14T01:29:00;11.00;99.90
18906;DHT22;9585;51.018;4.282;2023-05-14T01:31:30;11.00;99.90
18906;DHT22;9585;51.018;4.282;2023-05-14T01:34:00;11.00;99.90
18906;DHT22;9585;51.018;4.282;2023-05-14T01:36:30;11.00;99.90
18906;DHT22;9585;51.018;4.282;2023-05-14T01:38:59;11.00;99.90
18906;DHT22;9585;51.018;4.282;2023-05-14T01:41:28;11.00;99.90
18906;DHT22;9585;51.018;4.282;2023-05-14T01:43:57;11.00;99.90
18906;DHT22;9585;51.018;4.282;2023-05-14T01:46:25;11.00;99.90
18906;DHT22;9585;51.018;4.282;2023-05-14T01:48:52;11.10;99.90
18906;DHT22;9585;51.018;4.282;2023-05-14T01:51:20;11.10;99.90
18906;DHT22;9585;51.018;4.282;2023-05-14T01:53:49;11.10;99.90
18906;DHT22;9585;51.018;4.282;2023-05-14T01:56:16;11.10;99.90
18906;DHT22;9585;51.018;4.282;2023-05-14T01:58:44;11.10;99.90
18906;DHT22;9585;51.018;4.282;2023-05-14T02:01:12;11.10;99.90
18906;DHT22;9585;51.018;4.282;2023-05-14T02:03:39;11.10;99.90
18906;DHT22;9585;51.018;4.282;2023-05-14T02:06:07;11.10;99.90
18906;DHT22;9585;51.018;4.282;2023-05-14T02:08:35;11.00;99.90
18906;DHT22;9585;51.018;4.282;2023-05-14T02:11:04;11.00;99.90
18906;DHT22;9585;51.018;4.282;2023-05-14T02:13:32;11.10;99.90
18906;DHT22;9585;51.018;4.282;2023-05-14T02:15:59;11.00;99.90
18906;DHT22;9585;51.018;4.282;2023-05-14T02:18:27;11.10;99.90
18906;DHT22;9585;51.018;4.282;2023-05-14T02:20:54;11.10;99.90
18906;DHT22;9585;51.018;4.282;2023-05-14T02:23:22;11.10;99.90
18906;DHT22;9585;51.018;4.282;2023-05-14T02:25:50;11.10;99.90
18906;DHT22;9585;51.018;4.282;2023-05-14T02:28:19;11.10;99.90
18906;DHT22;9585;51.018;4.282;2023-05-14T02:30:46;11.10;99.90
18906;DHT22;9585;51.018;4.282;2023-05-14T02:33:14;11.00;99.90
18906;DHT22;9585;51.018;4.282;2023-05-14T02:35:41;11.10;99.90
18906;DHT22;9585;51.018;4.282;2023-05-14T02:38:09;11.10;99.90
18906;DHT22;9585;51.018;4.282;2023-05-14T02:40:36;11.10;99.90
18906;DHT22;9585;51.018;4.282;2023-05-14T02:43:04;11.10;99.90
18906;DHT22;9585;51.018;4.282;2023-05-14T02:45:33;11.10;99.90
18906;DHT22;9585;51.018;4.282;2023-05-14T02:48:00;11.10;99.90
18906;DHT22;9585;51.018;4.282;2023-05-14T02:50:28;11.10;99.90
18906;DHT22;9585;51.018;4.282;2023-05-14T02:52:55;11.10;99.90
18906;DHT22;9585;51.018;4.282;2023-05-14T02:55:23;11.10;99.90
18906;DHT22;9585;51.018;4.282;2023-05-14T02:57:51;11.10;99.90
18906;DHT22;9585;51.018;4.282;2023-05-14T03:00:19;11.10;99.90
18906;DHT22;9585;51.018;4.282;2023-05-14T03:02:58;11.10;99.90
18906;DHT22;9585;51.018;4.282;2023-05-14T03:05:26;11.00;99.90
18906;DHT22;9585;51.018;4.282;2023-05-14T03:07:53;11.00;99.90
18906;DHT22;9585;51.018;4.282;2023-05-14T03:10:21;11.10;99.90
18906;DHT22;9585;51.018;4.282;2023-05-14T03:12:48;11.00;99.90
18906;DHT22;9585;51.018;4.282;2023-05-14T03:15:16;11.00;99.90
18906;DHT22;9585;51.018;4.282;2023-05-14T03:17:44;11.10;99.90
18906;DHT22;9585;51.018;4.282;2023-05-14T03:20:14;11.00;99.90
18906;DHT22;9585;51.018;4.282;2023-05-14T03:22:42;11.00;99.90
18906;DHT22;9585;51.018;4.282;2023-05-14T03:25:09;11.00;99.90
18906;DHT22;9585;51.018;4.282;2023-05-14T03:27:37;11.00;99.90
18906;DHT22;9585;51.018;4.282;2023-05-14T03:30:06;11.00;99.90
18906;DHT22;9585;51.018;4.282;2023-05-14T03:32:33;11.00;99.90
18906;DHT22;9585;51.018;4.282;2023-05-14T03:35:02;11.00;99.90
18906;DHT22;9585;51.018;4.282;2023-05-14T03:37:31;11.00;99.90
18906;DHT22;9585;51.018;4.282;2023-05-14T03:40:07;11.00;99.90
18906;DHT22;9585;51.018;4.282;2023-05-14T03:42:36;11.00;99.90
18906;DHT22;9585;51.018;4.282;2023-05-14T03:45:08;11.00;99.90
18906;DHT22;9585;51.018;4.282;2023-05-14T03:47:36;11.00;99.90
18906;DHT22;9585;51.018;4.282;2023-05-14T03:50:04;11.00;99.90
18906;DHT22;9585;51.018;4.282;2023-05-14T03:52:34;11.00;99.90
18906;DHT22;9585;51.018;4.282;2023-05-14T03:55:01;11.00;99.90
18906;DHT22;9585;51.018;4.282;2023-05-14T03:57:29;11.00;99.90
18906;DHT22;9585;51.018;4.282;2023-05-14T03:59:56;11.00;99.90
18906;DHT22;9585;51.018;4.282;2023-05-14T04:02:24;10.90;99.90
18906;DHT22;9585;51.018;4.282;2023-05-14T04:04:52;11.00;99.90
18906;DHT22;9585;51.018;4.282;2023-05-14T04:07:20;10.90;99.90
18906;DHT22;9585;51.018;4.282;2023-05-14T04:09:49;11.00;99.90
18906;DHT22;9585;51.018;4.282;2023-05-14T04:12:20;11.00;99.90
18906;DHT22;9585;51.018;4.282;2023-05-14T04:14:47;11.00;99.90
18906;DHT22;9585;51.018;4.282;2023-05-14T04:17:19;11.00;99.90
18906;DHT22;9585;51.018;4.282;2023-05-14T04:19:50;11.00;99.90
18906;DHT22;9585;51.018;4.282;2023-05-14T04:22:20;11.00;99.90
18906;DHT22;9585;51.018;4.282;2023-05-14T04:24:49;11.00;99.90
18906;DHT22;9585;51.018;4.282;2023-05-14T04:27:19;11.00;99.90
18906;DHT22;9585;51.018;4.282;2023-05-14T04:29:49;11.00;99.90
18906;DHT22;9585;51.018;4.282;2023-05-14T04:32:26;11.10;99.90
18906;DHT22;9585;51.018;4.282;2023-05-14T04:34:56;11.00;99.90
18906;DHT22;9585;51.018;4.282;2023-05-14T04:37:25;11.00;99.90
18906;DHT22;9585;51.018;4.282;2023-05-14T04:39:54;11.10;99.90
18906;DHT22;9585;51.018;4.282;2023-05-14T04:42:24;11.10;99.90
18906;DHT22;9585;51.018;4.282;2023-05-14T04:44:52;11.10;99.90
18906;DHT22;9585;51.018;4.282;2023-05-14T04:47:19;11.10;99.90
18906;DHT22;9585;51.018;4.282;2023-05-14T04:49:47;11.20;99.90
18906;DHT22;9585;51.018;4.282;2023-05-14T04:52:14;11.20;99.90
18906;DHT22;9585;51.018;4.282;2023-05-14T04:54:42;11.20;99.90
18906;DHT22;9585;51.018;4.282;2023-05-14T04:57:11;11.20;99.90
18906;DHT22;9585;51.018;4.282;2023-05-14T04:59:39;11.20;99.90
18906;DHT22;9585;51.018;4.282;2023-05-14T05:02:06;11.20;99.90
18906;DHT22;9585;51.018;4.282;2023-05-14T05:04:34;11.30;99.90
18906;DHT22;9585;51.018;4.282;2023-05-14T05:07:01;11.30;99.90
18906;DHT22;9585;51.018;4.282;2023-05-14T05:09:30;11.30;99.90
18906;DHT22;9585;51.018;4.282;2023-05-14T05:11:58;11.30;99.90
18906;DHT22;9585;51.018;4.282;2023-05-14T05:14:27;11.40;99.90
18906;DHT22;9585;51.018;4.282;2023-05-14T05:16:55;11.30;99.90
18906;DHT22;9585;51.018;4.282;2023-05-14T05:19:23;11.30;99.90
18906;DHT22;9585;51.018;4.282;2023-05-14T05:21:50;11.40;99.90
18906;DHT22;9585;51.018;4.282;2023-05-14T05:24:18;11.40;99.90
18906;DHT22;9585;51.018;4.282;2023-05-14T05:26:45;11.40;99.90
18906;DHT22;9585;51.018;4.282;2023-05-14T05:29:13;11.50;99.90
18906;DHT22;9585;51.018;4.282;2023-05-14T05:31:42;11.50;99.90
18906;DHT22;9585;51.018;4.282;2023-05-14T05:34:09;11.60;99.90
18906;DHT22;9585;51.018;4.282;2023-05-14T05:36:37;11.50;99.90
18906;DHT22;9585;51.018;4.282;2023-05-14T05:39:04;11.50;99.90
18906;DHT22;9585;51.018;4.282;2023-05-14T05:41:32;11.50;99.90
18906;DHT22;9585;51.018;4.282;2023-05-14T05:43:59;11.60;99.90
18906;DHT22;9585;51.018;4.282;2023-05-14T05:46:27;11.60;99.90
18906;DHT22;9585;51.018;4.282;2023-05-14T05:48:56;11.50;99.90
18906;DHT22;9585;51.018;4.282;2023-05-14T05:51:36;11.60;99.90
18906;DHT22;9585;51.018;4.282;2023-05-14T05:54:12;11.60;99.90
18906;DHT22;9585;51.018;4.282;2023-05-14T05:56:41;11.60;99.90
18906;DHT22;9585;51.018;4.282;2023-05-14T05:59:09;11.60;99.90
18906;DHT22;9585;51.018;4.282;2023-05-14T06:01:36;11.60;99.90
18906;DHT22;9585;51.018;4.282;2023-05-14T06:04:07;11.60;99.90
18906;DHT22;9585;51.018;4.282;2023-05-14T06:06:34;11.60;99.90
18906;DHT22;9585;51.018;4.282;2023-05-14T06:09:05;11.70;99.90
18906;DHT22;9585;51.018;4.282;2023-05-14T06:11:33;11.70;99.90
18906;DHT22;9585;51.018;4.282;2023-05-14T06:14:01;11.70;99.90
18906;DHT22;9585;51.018;4.282;2023-05-14T06:16:29;11.70;99.90
18906;DHT22;9585;51.018;4.282;2023-05-14T06:19:00;11.80;99.90
18906;DHT22;9585;51.018;4.282;2023-05-14T06:21:29;11.80;99.90
18906;DHT22;9585;51.018;4.282;2023-05-14T06:23:57;11.80;99.90
18906;DHT22;9585;51.018;4.282;2023-05-14T06:26:38;11.90;99.90
18906;DHT22;9585;51.018;4.282;2023-05-14T06:29:06;11.90;99.90
18906;DHT22;9585;51.018;4.282;2023-05-14T06:31:33;11.90;99.90
18906;DHT22;9585;51.018;4.282;2023-05-14T06:34:01;12.00;99.90
18906;DHT22;9585;51.018;4.282;2023-05-14T06:36:35;12.10;99.90
18906;DHT22;9585;51.018;4.282;2023-05-14T06:39:05;12.10;99.90
18906;DHT22;9585;51.018;4.282;2023-05-14T06:41:36;12.20;99.90
18906;DHT22;9585;51.018;4.282;2023-05-14T06:44:04;12.20;99.90
18906;DHT22;9585;51.018;4.282;2023-05-14T06:46:35;12.30;99.90
18906;DHT22;9585;51.018;4.282;2023-05-14T06:49:03;12.30;99.90
18906;DHT22;9585;51.018;4.282;2023-05-14T06:51:35;12.30;99.90
18906;DHT22;9585;51.018;4.282;2023-05-14T06:54:08;12.30;99.90
18906;DHT22;9585;51.018;4.282;2023-05-14T06:56:36;12.40;99.90
18906;DHT22;9585;51.018;4.282;2023-05-14T06:59:04;12.40;99.90
18906;DHT22;9585;51.018;4.282;2023-05-14T07:01:32;12.40;99.90
18906;DHT22;9585;51.018;4.282;2023-05-14T07:03:59;12.40;99.90
18906;DHT22;9585;51.018;4.282;2023-05-14T07:06:27;12.40;99.90
18906;DHT22;9585;51.018;4.282;2023-05-14T07:08:55;12.50;99.90
18906;DHT22;9585;51.018;4.282;2023-05-14T07:11:23;12.50;99.90
18906;DHT22;9585;51.018;4.282;2023-05-14T07:13:50;12.50;99.90
18906;DHT22;9585;51.018;4.282;2023-05-14T07:16:25;12.50;99.90
18906;DHT22;9585;51.018;4.282;2023-05-14T07:18:57;12.60;99.90
18906;DHT22;9585;51.018;4.282;2023-05-14T07:21:25;12.60;99.90
18906;DHT22;9585;51.018;4.282;2023-05-14T07:23:53;12.60;99.90
18906;DHT22;9585;51.018;4.282;2023-05-14T07:26:39;12.70;99.90
18906;DHT22;9585;51.018;4.282;2023-05-14T07:29:08;12.80;99.90
18906;DHT22;9585;51.018;4.282;2023-05-14T07:31:40;13.00;99.90
18906;DHT22;9585;51.018;4.282;2023-05-14T07:34:12;13.10;99.90
18906;DHT22;9585;51.018;4.282;2023-05-14T07:36:40;13.00;99.90
18906;DHT22;9585;51.018;4.282;2023-05-14T07:39:07;13.00;99.90
18906;DHT22;9585;51.018;4.282;2023-05-14T07:41:39;13.10;99.90
18906;DHT22;9585;51.018;4.282;2023-05-14T07:44:19;13.20;99.90
18906;DHT22;9585;51.018;4.282;2023-05-14T07:46:49;13.30;99.90
18906;DHT22;9585;51.018;4.282;2023-05-14T07:49:17;13.50;99.90
18906;DHT22;9585;51.018;4.282;2023-05-14T07:51:44;13.60;99.90
18906;DHT22;9585;51.018;4.282;2023-05-14T07:54:16;13.70;99.90
18906;DHT22;9585;51.018;4.282;2023-05-14T07:56:45;13.70;99.90
18906;DHT22;9585;51.018;4.282;2023-05-14T07:59:12;13.70;99.90
18906;DHT22;9585;51.018;4.282;2023-05-14T08:01:41;13.80;99.90
18906;DHT22;9585;51.018;4.282;2023-05-14T08:04:11;13.80;99.90
18906;DHT22;9585;51.018;4.282;2023-05-14T08:06:54;13.70;99.90
18906;DHT22;9585;51.018;4.282;2023-05-14T08:09:23;13.70;99.90
18906;DHT22;9585;51.018;4.282;2023-05-14T08:11:55;13.70;99.90
18906;DHT22;9585;51.018;4.282;2023-05-14T08:14:25;13.70;99.90
18906;DHT22;9585;51.018;4.282;2023-05-14T08:16:57;13.70;99.90
18906;DHT22;9585;51.018;4.282;2023-05-14T08:19:27;13.70;99.90
18906;DHT22;9585;51.018;4.282;2023-05-14T08:22:15;13.80;99.90
18906;DHT22;9585;51.018;4.282;2023-05-14T08:24:52;14.00;99.90
18906;DHT22;9585;51.018;4.282;2023-05-14T08:27:29;14.00;99.90
18906;DHT22;9585;51.018;4.282;2023-05-14T08:30:09;14.00;99.90
18906;DHT22;9585;51.018;4.282;2023-05-14T08:33:12;14.20;99.90
18906;DHT22;9585;51.018;4.282;2023-05-14T08:35:51;14.00;99.90
18906;DHT22;9585;51.018;4.282;2023-05-14T08:38:33;14.20;99.90
18906;DHT22;9585;51.018;4.282;2023-05-14T08:41:24;14.30;99.90
18906;DHT22;9585;51.018;4.282;2023-05-14T08:44:05;14.20;99.90
18906;DHT22;9585;51.018;4.282;2023-05-14T08:46:43;14.00;99.90
18906;DHT22;9585;51.018;4.282;2023-05-14T08:49:27;14.10;99.90
18906;DHT22;9585;51.018;4.282;2023-05-14T08:51:57;14.20;99.90
18906;DHT22;9585;51.018;4.282;2023-05-14T08:54:26;14.20;99.90
18906;DHT22;9585;51.018;4.282;2023-05-14T08:56:55;14.20;99.90
18906;DHT22;9585;51.018;4.282;2023-05-14T08:59:28;14.20;99.90
18906;DHT22;9585;51.018;4.282;2023-05-14T09:01:56;14.20;99.90
18906;DHT22;9585;51.018;4.282;2023-05-14T09:04:25;14.20;99.90
18906;DHT22;9585;51.018;4.282;2023-05-14T09:06:55;14.40;99.90
18906;DHT22;9585;51.018;4.282;2023-05-14T09:09:36;14.50;99.90
18906;DHT22;9585;51.018;4.282;2023-05-14T09:12:15;14.60;99.90
18906;DHT22;9585;51.018;4.282;2023-05-14T09:14:46;14.70;99.90
18906;DHT22;9585;51.018;4.282;2023-05-14T09:17:21;14.80;99.90
18906;DHT22;9585;51.018;4.282;2023-05-14T09:19:59;14.90;99.90
18906;DHT22;9585;51.018;4.282;2023-05-14T09:22:30;15.00;99.90
18906;DHT22;9585;51.018;4.282;2023-05-14T09:25:10;15.10;99.90
18906;DHT22;9585;51.018;4.282;2023-05-14T09:27:48;15.20;99.90
18906;DHT22;9585;51.018;4.282;2023-05-14T09:30:20;15.40;99.90
18906;DHT22;9585;51.018;4.282;2023-05-14T09:32:48;15.70;99.90
18906;DHT22;9585;51.018;4.282;2023-05-14T09:35:20;15.70;99.90
18906;DHT22;9585;51.018;4.282;2023-05-14T09:37:51;15.90;99.90
18906;DHT22;9585;51.018;4.282;2023-05-14T09:40:36;16.20;99.90
18906;DHT22;9585;51.018;4.282;2023-05-14T09:43:11;16.40;99.90
18906;DHT22;9585;51.018;4.282;2023-05-14T09:45:53;16.50;99.90
18906;DHT22;9585;51.018;4.282;2023-05-14T09:48:20;16.60;99.90
18906;DHT22;9585;51.018;4.282;2023-05-14T09:50:52;16.80;99.90
18906;DHT22;9585;51.018;4.282;2023-05-14T09:53:35;17.40;99.90
18906;DHT22;9585;51.018;4.282;2023-05-14T09:56:02;17.50;99.90
18906;DHT22;9585;51.018;4.282;2023-05-14T09:58:33;17.60;99.90
18906;DHT22;9585;51.018;4.282;2023-05-14T10:01:18;17.60;99.90
18906;DHT22;9585;51.018;4.282;2023-05-14T10:03:47;17.30;99.90
18906;DHT22;9585;51.018;4.282;2023-05-14T10:06:38;17.60;99.90
18906;DHT22;9585;51.018;4.282;2023-05-14T10:09:16;17.80;99.90
18906;DHT22;9585;51.018;4.282;2023-05-14T10:11:58;17.80;99.90
18906;DHT22;9585;51.018;4.282;2023-05-14T10:14:32;17.60;99.90
18906;DHT22;9585;51.018;4.282;2023-05-14T10:17:02;17.70;99.90
18906;DHT22;9585;51.018;4.282;2023-05-14T10:19:33;17.80;99.90
18906;DHT22;9585;51.018;4.282;2023-05-14T10:22:06;17.80;99.90
18906;DHT22;9585;51.018;4.282;2023-05-14T10:24:40;17.80;99.90
18906;DHT22;9585;51.018;4.282;2023-05-14T10:27:22;17.90;99.90
18906;DHT22;9585;51.018;4.282;2023-05-14T10:29:54;18.20;99.90
18906;DHT22;9585;51.018;4.282;2023-05-14T10:32:28;18.30;99.90
18906;DHT22;9585;51.018;4.282;2023-05-14T10:34:57;18.40;99.90
18906;DHT22;9585;51.018;4.282;2023-05-14T10:37:29;18.60;99.90
18906;DHT22;9585;51.018;4.282;2023-05-14T10:39:58;18.40;99.90
18906;DHT22;9585;51.018;4.282;2023-05-14T10:42:26;18.60;99.90
18906;DHT22;9585;51.018;4.282;2023-05-14T10:44:56;18.70;99.90
18906;DHT22;9585;51.018;4.282;2023-05-14T10:47:26;18.80;99.90
18906;DHT22;9585;51.018;4.282;2023-05-14T10:49:58;18.90;99.90
18906;DHT22;9585;51.018;4.282;2023-05-14T10:52:26;18.90;99.90
18906;DHT22;9585;51.018;4.282;2023-05-14T10:54:58;18.80;99.90
18906;DHT22;9585;51.018;4.282;2023-05-14T10:57:29;18.90;99.90
18906;DHT22;9585;51.018;4.282;2023-05-14T10:59:59;18.90;99.90
18906;DHT22;9585;51.018;4.282;2023-05-14T11:02:30;19.00;99.90
18906;DHT22;9585;51.018;4.282;2023-05-14T11:05:06;19.10;99.90
18906;DHT22;9585;51.018;4.282;2023-05-14T11:07:37;19.10;99.90
18906;DHT22;9585;51.018;4.282;2023-05-14T11:10:10;19.20;99.90
18906;DHT22;9585;51.018;4.282;2023-05-14T11:12:51;19.30;99.90
18906;DHT22;9585;51.018;4.282;2023-05-14T11:15:25;19.20;99.90
18906;DHT22;9585;51.018;4.282;2023-05-14T11:18:09;19.30;99.90
18906;DHT22;9585;51.018;4.282;2023-05-14T11:20:38;19.40;99.90
18906;DHT22;9585;51.018;4.282;2023-05-14T11:23:15;19.10;99.90
18906;DHT22;9585;51.018;4.282;2023-05-14T11:25:44;19.20;99.90
18906;DHT22;9585;51.018;4.282;2023-05-14T11:28:11;19.40;99.90
18906;DHT22;9585;51.018;4.282;2023-05-14T11:30:39;19.60;99.90
18906;DHT22;9585;51.018;4.282;2023-05-14T11:33:08;19.70;99.90
18906;DHT22;9585;51.018;4.282;2023-05-14T11:35:36;19.80;99.90
18906;DHT22;9585;51.018;4.282;2023-05-14T11:38:13;19.90;99.90
18906;DHT22;9585;51.018;4.282;2023-05-14T11:40:56;19.80;99.90
18906;DHT22;9585;51.018;4.282;2023-05-14T11:43:29;19.70;99.90
18906;DHT22;9585;51.018;4.282;2023-05-14T11:45:57;19.90;99.90
18906;DHT22;9585;51.018;4.282;2023-05-14T11:48:30;19.90;99.90
18906;DHT22;9585;51.018;4.282;2023-05-14T11:50:58;20.00;99.90
18906;DHT22;9585;51.018;4.282;2023-05-14T11:53:28;19.80;99.90
18906;DHT22;9585;51.018;4.282;2023-05-14T11:55:57;19.90;99.90
18906;DHT22;9585;51.018;4.282;2023-05-14T11:58:31;20.00;99.90
18906;DHT22;9585;51.018;4.282;2023-05-14T12:00:59;20.20;99.90
18906;DHT22;9585;51.018;4.282;2023-05-14T12:03:29;20.20;99.90
18906;DHT22;9585;51.018;4.282;2023-05-14T12:05:59;20.10;99.90
18906;DHT22;9585;51.018;4.282;2023-05-14T12:08:28;20.10;99.90
18906;DHT22;9585;51.018;4.282;2023-05-14T12:10:58;20.20;99.90
18906;DHT22;9585;51.018;4.282;2023-05-14T12:13:29;20.40;99.90
18906;DHT22;9585;51.018;4.282;2023-05-14T12:16:14;20.40;99.90
18906;DHT22;9585;51.018;4.282;2023-05-14T12:18:50;20.50;99.90
18906;DHT22;9585;51.018;4.282;2023-05-14T12:21:18;20.40;99.90
18906;DHT22;9585;51.018;4.282;2023-05-14T12:23:48;20.20;99.90
18906;DHT22;9585;51.018;4.282;2023-05-14T12:26:24;20.20;99.90
18906;DHT22;9585;51.018;4.282;2023-05-14T12:29:02;20.50;99.90
18906;DHT22;9585;51.018;4.282;2023-05-14T12:31:33;20.50;99.90
18906;DHT22;9585;51.018;4.282;2023-05-14T12:34:03;20.60;99.90
18906;DHT22;9585;51.018;4.282;2023-05-14T12:36:37;20.60;99.90
18906;DHT22;9585;51.018;4.282;2023-05-14T12:39:07;20.60;99.90
18906;DHT22;9585;51.018;4.282;2023-05-14T12:41:35;20.70;99.90
18906;DHT22;9585;51.018;4.282;2023-05-14T12:44:03;20.60;99.90
18906;DHT22;9585;51.018;4.282;2023-05-14T12:46:32;20.70;99.90
18906;DHT22;9585;51.018;4.282;2023-05-14T12:49:02;20.40;99.90
18906;DHT22;9585;51.018;4.282;2023-05-14T12:51:32;20.20;99.90
18906;DHT22;9585;51.018;4.282;2023-05-14T12:54:00;20.40;99.90
18906;DHT22;9585;51.018;4.282;2023-05-14T12:56:28;20.60;99.90
18906;DHT22;9585;51.018;4.282;2023-05-14T12:58:56;20.70;99.90
18906;DHT22;9585;51.018;4.282;2023-05-14T13:01:24;20.70;99.90
18906;DHT22;9585;51.018;4.282;2023-05-14T13:03:52;20.70;99.90
18906;DHT22;9585;51.018;4.282;2023-05-14T13:06:22;20.60;99.90
18906;DHT22;9585;51.018;4.282;2023-05-14T13:08:49;20.70;99.90
18906;DHT22;9585;51.018;4.282;2023-05-14T13:11:19;20.70;99.90
18906;DHT22;9585;51.018;4.282;2023-05-14T13:13:49;20.60;99.90
18906;DHT22;9585;51.018;4.282;2023-05-14T13:16:17;20.70;99.90
18906;DHT22;9585;51.018;4.282;2023-05-14T13:18:59;20.80;99.90
18906;DHT22;9585;51.018;4.282;2023-05-14T13:21:40;20.70;99.90
18906;DHT22;9585;51.018;4.282;2023-05-14T13:24:12;20.70;99.90
18906;DHT22;9585;51.018;4.282;2023-05-14T13:26:43;20.80;99.90
18906;DHT22;9585;51.018;4.282;2023-05-14T13:29:10;21.10;99.90
18906;DHT22;9585;51.018;4.282;2023-05-14T13:31:54;21.10;99.90
18906;DHT22;9585;51.018;4.282;2023-05-14T13:34:24;21.40;99.90
18906;DHT22;9585;51.018;4.282;2023-05-14T13:36:53;21.40;99.90
18906;DHT22;9585;51.018;4.282;2023-05-14T13:39:21;21.30;99.90
18906;DHT22;9585;51.018;4.282;2023-05-14T13:41:55;21.20;99.90
18906;DHT22;9585;51.018;4.282;2023-05-14T13:44:38;21.20;99.90
18906;DHT22;9585;51.018;4.282;2023-05-14T13:47:28;21.30;99.90
18906;DHT22;9585;51.018;4.282;2023-05-14T13:49:56;21.40;99.90
18906;DHT22;9585;51.018;4.282;2023-05-14T13:52:28;21.40;99.90
18906;DHT22;9585;51.018;4.282;2023-05-14T13:54:56;21.50;99.90
18906;DHT22;9585;51.018;4.282;2023-05-14T13:57:28;21.30;99.90
18906;DHT22;9585;51.018;4.282;2023-05-14T14:00:01;21.40;99.90
18906;DHT22;9585;51.018;4.282;2023-05-14T14:02:30;21.30;99.90
18906;DHT22;9585;51.018;4.282;2023-05-14T14:05:01;21.30;99.90
18906;DHT22;9585;51.018;4.282;2023-05-14T14:07:33;21.30;99.90
18906;DHT22;9585;51.018;4.282;2023-05-14T14:10:09;21.30;99.90
18906;DHT22;9585;51.018;4.282;2023-05-14T14:12:36;21.30;99.90
18906;DHT22;9585;51.018;4.282;2023-05-14T14:15:15;21.40;99.90
18906;DHT22;9585;51.018;4.282;2023-05-14T14:17:50;21.50;99.90
18906;DHT22;9585;51.018;4.282;2023-05-14T14:20:33;21.60;99.90
18906;DHT22;9585;51.018;4.282;2023-05-14T14:23:24;21.60;99.90
18906;DHT22;9585;51.018;4.282;2023-05-14T14:26:01;21.40;99.90
18906;DHT22;9585;51.018;4.282;2023-05-14T14:28:42;21.40;99.90
18906;DHT22;9585;51.018;4.282;2023-05-14T14:31:15;21.40;99.90
18906;DHT22;9585;51.018;4.282;2023-05-14T14:33:45;21.40;99.90
18906;DHT22;9585;51.018;4.282;2023-05-14T14:39:06;21.40;99.90
18906;DHT22;9585;51.018;4.282;2023-05-14T14:41:37;21.20;99.90
18906;DHT22;9585;51.018;4.282;2023-05-14T14:44:08;21.20;99.90
18906;DHT22;9585;51.018;4.282;2023-05-14T14:46:54;21.10;99.90
18906;DHT22;9585;51.018;4.282;2023-05-14T14:49:38;21.10;99.90
18906;DHT22;9585;51.018;4.282;2023-05-14T14:52:06;20.90;99.90
18906;DHT22;9585;51.018;4.282;2023-05-14T14:54:38;20.80;99.90
18906;DHT22;9585;51.018;4.282;2023-05-14T14:57:09;20.60;99.90
18906;DHT22;9585;51.018;4.282;2023-05-14T14:59:37;20.60;99.90
18906;DHT22;9585;51.018;4.282;2023-05-14T15:02:07;20.60;99.90
18906;DHT22;9585;51.018;4.282;2023-05-14T15:04:38;20.50;99.90
18906;DHT22;9585;51.018;4.282;2023-05-14T15:07:06;20.10;99.90
18906;DHT22;9585;51.018;4.282;2023-05-14T15:09:34;19.90;99.90
18906;DHT22;9585;51.018;4.282;2023-05-14T15:12:03;19.80;99.90
18906;DHT22;9585;51.018;4.282;2023-05-14T15:14:36;19.60;99.90
18906;DHT22;9585;51.018;4.282;2023-05-14T15:17:06;19.50;99.90
18906;DHT22;9585;51.018;4.282;2023-05-14T15:19:35;19.40;99.90
18906;DHT22;9585;51.018;4.282;2023-05-14T15:22:04;19.30;99.90
18906;DHT22;9585;51.018;4.282;2023-05-14T15:24:32;19.30;99.90
18906;DHT22;9585;51.018;4.282;2023-05-14T15:26:59;19.10;99.90
18906;DHT22;9585;51.018;4.282;2023-05-14T15:29:28;18.80;99.90
18906;DHT22;9585;51.018;4.282;2023-05-14T15:31:56;18.70;99.90
18906;DHT22;9585;51.018;4.282;2023-05-14T15:34:26;18.70;99.90
18906;DHT22;9585;51.018;4.282;2023-05-14T15:36:54;18.50;99.90
18906;DHT22;9585;51.018;4.282;2023-05-14T15:39:24;18.40;99.90
18906;DHT22;9585;51.018;4.282;2023-05-14T15:41:55;18.20;99.90
18906;DHT22;9585;51.018;4.282;2023-05-14T15:44:27;18.10;99.90
18906;DHT22;9585;51.018;4.282;2023-05-14T15:46:57;18.00;99.90
18906;DHT22;9585;51.018;4.282;2023-05-14T15:49:25;18.00;99.90
18906;DHT22;9585;51.018;4.282;2023-05-14T15:51:52;17.90;99.90
18906;DHT22;9585;51.018;4.282;2023-05-14T15:54:22;17.90;99.90
18906;DHT22;9585;51.018;4.282;2023-05-14T15:56:53;17.90;99.90
18906;DHT22;9585;51.018;4.282;2023-05-14T15:59:22;17.90;99.90
18906;DHT22;9585;51.018;4.282;2023-05-14T16:01:50;17.80;99.90
18906;DHT22;9585;51.018;4.282;2023-05-14T16:04:34;17.80;99.90
18906;DHT22;9585;51.018;4.282;2023-05-14T16:07:05;17.80;99.90
18906;DHT22;9585;51.018;4.282;2023-05-14T16:09:42;17.70;99.90
18906;DHT22;9585;51.018;4.282;2023-05-14T16:12:11;17.70;99.90